Time;durP1;ratioP1;P1;durP2;ratioP2;P2;SDS_P1;SDS_P2;PMS_P1;PMS_P2;Temp;Humidity;BMP_temperature;BMP_pressure;BME280_temperature;BME280_humidity;BME280_pressure;Samples;Min_cycle;Max_cycle;Signal;HPM_P1;HPM_P2
2023/05/28 00:02:43;;;;;;;8.37;4.87;;;;;;;16.02;71.67;102162.75;6039036;29;20230;-77
2023/05/28 00:06:06;;;;;;;5.53;4.07;;;;;;;15.94;71.71;102157.16;6030403;29;20234;-75
2023/05/28 00:09:27;;;;;;;10.20;4.20;;;;;;;15.97;71.42;102159.59;6032886;29;20246;-76
2023/05/28 00:12:49;;;;;;;7.10;4.90;;;;;;;15.95;71.34;102161.59;6036416;29;20238;-76
2023/05/28 00:16:12;;;;;;;5.13;4.00;;;;;;;15.75;71.67;102157.97;6009475;29;20636;-76
2023/05/28 00:19:33;;;;;;;7.73;4.67;;;;;;;15.66;71.64;102163.38;6030298;29;20607;-76
2023/05/28 00:22:54;;;;;;;6.60;4.67;;;;;;;15.68;71.81;102155.94;6038158;29;20628;-76
2023/05/28 00:26:15;;;;;;;5.17;4.63;;;;;;;15.60;72.36;102159.34;6036069;29;20502;-77
2023/05/28 00:29:40;;;;;;;7.00;4.73;;;;;;;15.62;72.56;102161.94;6028568;29;20683;-76
2023/05/28 00:33:01;;;;;;;5.93;3.70;;;;;;;15.63;72.67;102150.91;6016281;29;20234;-75
2023/05/28 00:36:23;;;;;;;6.20;4.10;;;;;;;15.55;72.18;102158.03;6025642;29;20242;-77
2023/05/28 00:39:44;;;;;;;7.03;5.57;;;;;;;15.52;72.74;102159.16;6031483;29;20246;-77
2023/05/28 00:43:07;;;;;;;5.13;4.07;;;;;;;15.42;72.59;102157.34;6027089;29;20245;-77
2023/05/28 00:46:29;;;;;;;5.97;4.10;;;;;;;15.32;73.22;102151.03;6024701;29;20333;-76
2023/05/28 00:49:50;;;;;;;5.07;4.00;;;;;;;15.34;72.98;102152.63;6028766;29;20238;-78
2023/05/28 00:53:13;;;;;;;4.47;3.80;;;;;;;15.34;73.35;102154.47;6015795;29;20283;-78
2023/05/28 00:56:34;;;;;;;10.57;5.23;;;;;;;15.31;73.22;102150.16;6036540;29;20233;-77
2023/05/28 00:59:57;;;;;;;8.17;4.57;;;;;;;15.28;72.97;102150.44;6030828;29;20229;-78
2023/05/28 01:03:20;;;;;;;7.43;5.07;;;;;;;15.20;73.25;102148.41;6031668;29;20253;-78
2023/05/28 01:06:43;;;;;;;14.40;6.03;;;;;;;15.12;73.57;102147.34;6028052;29;20653;-77
2023/05/28 01:10:05;;;;;;;7.93;5.87;;;;;;;15.07;73.75;102139.59;6029192;29;20242;-77
2023/05/28 01:13:25;;;;;;;5.63;4.73;;;;;;;15.07;74.14;102142.31;6023820;29;20234;-77
2023/05/28 01:16:48;;;;;;;6.27;4.30;;;;;;;15.11;74.13;102140.19;6038690;29;20229;-77
2023/05/28 01:20:13;;;;;;;9.33;4.83;;;;;;;15.09;74.46;102150.31;6021657;29;20682;-77
2023/05/28 01:23:39;;;;;;;5.27;4.77;;;;;;;14.94;74.21;102143.50;6023196;29;20234;-77
2023/05/28 01:27:00;;;;;;;8.37;4.10;;;;;;;14.93;74.65;102137.25;6034080;29;20245;-77
2023/05/28 01:30:21;;;;;;;4.93;4.27;;;;;;;14.84;74.52;102142.59;6028870;29;20249;-77
2023/05/28 01:33:43;;;;;;;9.10;4.97;;;;;;;14.79;74.52;102140.28;6029998;29;20265;-79
2023/05/28 01:37:09;;;;;;;6.87;4.60;;;;;;;14.71;75.25;102140.06;6024836;29;20246;-77
2023/05/28 01:40:33;;;;;;;7.13;6.13;;;;;;;14.77;75.04;102125.13;6025678;29;20234;-78
2023/05/28 01:43:56;;;;;;;5.77;4.53;;;;;;;14.74;75.07;102128.97;6008653;29;20733;-77
2023/05/28 01:47:17;;;;;;;5.00;4.50;;;;;;;14.68;75.51;102128.63;6316209;23;20237;-77
2023/05/28 01:50:39;;;;;;;8.03;4.77;;;;;;;14.62;75.30;102127.31;6066441;29;20236;-81
2023/05/28 01:54:00;;;;;;;8.53;4.53;;;;;;;14.72;75.42;102122.81;6072957;29;20228;-78
2023/05/28 01:57:22;;;;;;;6.40;4.37;;;;;;;14.70;75.24;102118.50;6064245;29;20686;-78
2023/05/28 02:00:50;;;;;;;5.93;5.13;;;;;;;14.64;75.32;102122.59;6073124;29;20224;-79
2023/05/28 02:04:11;;;;;;;8.83;4.13;;;;;;;14.50;75.62;102122.06;6066485;29;20635;-79
2023/05/28 02:07:32;;;;;;;6.60;4.67;;;;;;;14.52;75.84;102114.66;6068654;29;20264;-83
2023/05/28 02:10:53;;;;;;;7.67;5.43;;;;;;;14.55;75.44;102114.38;6058747;29;20240;-84
2023/05/28 02:14:16;;;;;;;5.57;4.33;;;;;;;14.46;76.33;102124.16;6074891;29;20499;-83
2023/05/28 02:17:38;;;;;;;9.33;4.80;;;;;;;14.43;75.78;102116.31;6084064;29;20256;-80
2023/05/28 02:20:59;;;;;;;10.13;4.60;;;;;;;14.35;76.24;102118.81;6038695;29;20247;-85
2023/05/28 02:24:20;;;;;;;11.37;5.33;;;;;;;14.37;76.45;102119.53;6073678;29;20343;-84
2023/05/28 02:27:41;;;;;;;9.13;4.93;;;;;;;14.31;76.34;102110.03;6068203;29;20225;-83
2023/05/28 02:31:06;;;;;;;12.77;4.70;;;;;;;14.30;76.48;102113.78;6055277;29;20252;-84
2023/05/28 02:34:31;;;;;;;10.23;4.50;;;;;;;14.27;76.59;102105.84;6066235;29;20232;-82
2023/05/28 02:37:52;;;;;;;8.13;4.70;;;;;;;14.23;76.89;102115.22;6069303;29;20241;-81
2023/05/28 02:41:13;;;;;;;4.40;4.00;;;;;;;14.21;76.81;102117.22;6056543;29;20595;-82
2023/05/28 02:44:40;;;;;;;10.73;5.70;;;;;;;14.12;77.22;102111.72;6048631;29;20232;-83
2023/05/28 02:48:04;;;;;;;8.90;4.93;;;;;;;14.05;77.01;102107.78;6059529;29;20265;-82
2023/05/28 02:51:29;;;;;;;7.50;4.23;;;;;;;14.08;77.16;102112.97;6020613;29;20280;-85
2023/05/28 02:55:12;;;;;;;5.17;3.70;;;;;;;14.03;77.19;102110.63;6040071;29;20352;-84
2023/05/28 02:58:36;;;;;;;8.37;5.63;;;;;;;13.98;76.98;102112.84;6031835;29;20237;-85
2023/05/28 03:02:00;;;;;;;5.27;4.27;;;;;;;14.16;77.27;102105.88;6054042;29;20236;-82
2023/05/28 03:05:24;;;;;;;6.67;4.87;;;;;;;14.10;77.05;102102.84;6027479;29;20253;-82
2023/05/28 03:08:48;;;;;;;7.77;5.10;;;;;;;14.01;77.36;102122.59;6047930;29;20295;-85
2023/05/28 03:12:09;;;;;;;5.60;4.30;;;;;;;14.03;77.55;102129.63;6059363;29;20261;-81
2023/05/28 03:15:31;;;;;;;8.37;4.70;;;;;;;14.04;77.18;102122.34;6050131;29;20232;-83
2023/05/28 03:18:53;;;;;;;6.43;4.23;;;;;;;13.94;77.32;102122.22;6045684;29;20312;-84
2023/05/28 03:22:16;;;;;;;6.00;3.83;;;;;;;13.89;77.63;102113.63;6055080;29;20226;-81
2023/05/28 03:25:37;;;;;;;8.50;4.17;;;;;;;13.91;77.85;102127.06;6040846;29;22793;-83
2023/05/28 03:28:58;;;;;;;6.37;4.03;;;;;;;13.96;77.49;102128.38;6046170;29;20658;-85
2023/05/28 03:32:27;;;;;;;4.93;3.90;;;;;;;13.93;77.38;102122.38;6053537;29;20241;-81
2023/05/28 03:35:48;;;;;;;5.60;4.70;;;;;;;13.96;77.78;102122.97;6028530;29;20256;-83
2023/05/28 03:39:11;;;;;;;8.87;5.10;;;;;;;14.04;77.72;102125.91;6037677;29;20241;-83
2023/05/28 03:42:33;;;;;;;8.33;5.37;;;;;;;13.97;77.63;102130.13;6043981;29;20245;-82
2023/05/28 03:45:53;;;;;;;7.57;4.83;;;;;;;13.88;77.82;102124.59;6043694;29;20317;-82
2023/05/28 03:49:14;;;;;;;11.40;4.63;;;;;;;13.91;77.92;102117.09;6044133;29;20627;-83
2023/05/28 03:52:35;;;;;;;9.47;5.03;;;;;;;13.95;78.05;102115.84;6045425;29;20237;-80
2023/05/28 03:55:58;;;;;;;12.60;5.57;;;;;;;13.99;77.73;102108.28;6047444;29;20226;-82
2023/05/28 03:59:21;;;;;;;6.23;4.97;;;;;;;14.09;78.02;102107.41;6044724;29;20312;-84
2023/05/28 04:02:42;;;;;;;10.90;5.00;;;;;;;14.16;77.48;102108.59;6043120;29;20225;-81
2023/05/28 04:06:04;;;;;;;6.30;4.13;;;;;;;14.23;77.43;102111.66;6032230;29;20241;-81
2023/05/28 04:09:26;;;;;;;6.30;4.30;;;;;;;14.17;77.19;102112.16;6047341;29;20707;-82
2023/05/28 04:12:50;;;;;;;8.40;4.70;;;;;;;14.22;77.05;102109.94;6049406;29;20325;-83
2023/05/28 04:16:11;;;;;;;7.47;4.87;;;;;;;14.35;76.88;102116.94;6045434;29;20252;-80
2023/05/28 04:19:32;;;;;;;6.93;5.13;;;;;;;14.45;76.51;102113.44;6050154;29;20229;-82
2023/05/28 04:22:53;;;;;;;9.10;5.57;;;;;;;14.49;76.33;102115.78;6060011;29;20237;-84
2023/05/28 04:26:16;;;;;;;5.00;4.20;;;;;;;14.62;75.84;102111.03;6035810;29;20360;-81
2023/05/28 04:29:38;;;;;;;13.27;5.37;;;;;;;14.56;75.36;102119.66;6051318;29;20244;-84
2023/05/28 04:32:59;;;;;;;4.07;3.40;;;;;;;14.57;75.47;102115.97;6050532;29;20324;-85
2023/05/28 04:36:21;;;;;;;14.63;6.57;;;;;;;14.74;75.04;102117.25;6054098;29;20876;-82
2023/05/28 04:39:41;;;;;;;6.13;4.23;;;;;;;14.79;74.95;102115.00;6041239;29;20237;-85
2023/05/28 04:43:03;;;;;;;5.00;4.43;;;;;;;14.92;74.33;102116.50;6056948;29;20373;-85
2023/05/28 04:46:29;;;;;;;7.03;4.73;;;;;;;14.74;74.36;102118.09;5997533;29;20313;-83
2023/05/28 04:49:50;;;;;;;8.03;4.90;;;;;;;14.85;74.44;102119.91;6024941;29;20238;-87
2023/05/28 04:53:17;;;;;;;4.23;3.77;;;;;;;15.01;74.17;102120.28;6060495;29;20241;-86
2023/05/28 04:56:38;;;;;;;8.27;5.03;;;;;;;15.05;73.95;102127.16;6054010;29;20319;-84
2023/05/28 05:00:01;;;;;;;10.37;5.37;;;;;;;15.13;73.91;102119.19;6037583;29;20226;-84
2023/05/28 05:03:25;;;;;;;6.73;5.43;;;;;;;15.09;73.34;102121.31;6036171;29;20241;-86
2023/05/28 05:06:47;;;;;;;9.57;4.83;;;;;;;15.27;73.53;102126.13;6060897;29;20241;-83
2023/05/28 05:10:11;;;;;;;4.67;3.60;;;;;;;15.36;72.62;102122.56;6019294;29;20234;-84
2023/05/28 05:13:32;;;;;;;6.97;5.23;;;;;;;15.47;72.43;102123.38;6022484;29;20237;-88
2023/05/28 05:16:53;;;;;;;9.60;4.07;;;;;;;15.48;72.41;102122.38;6061269;29;20234;-84
2023/05/28 05:20:29;;;;;;;5.80;4.57;;;;;;;15.62;72.10;102121.16;6044561;29;20237;-87
2023/05/28 05:24:09;;;;;;;8.20;4.93;;;;;;;15.91;71.62;102122.09;5994942;29;20579;-86
2023/05/28 05:27:38;;;;;;;6.00;4.57;;;;;;;15.93;70.48;102112.78;6050077;29;21682;-85
2023/05/28 05:31:04;;;;;;;12.50;5.23;;;;;;;16.05;70.43;102105.34;6035206;29;20241;-88
2023/05/28 05:34:53;;;;;;;7.13;4.97;;;;;;;16.17;70.17;102106.06;6036420;29;20229;-89
2023/05/28 05:38:48;;;;;;;7.50;4.77;;;;;;;16.46;69.90;102102.34;5950177;29;20237;-87
2023/05/28 05:42:30;;;;;;;6.70;4.33;;;;;;;16.60;69.24;102106.53;6046786;29;20269;-85
2023/05/28 05:45:58;;;;;;;6.87;4.37;;;;;;;16.65;68.85;102101.50;6014722;29;20498;-88
2023/05/28 05:49:22;;;;;;;9.53;5.40;;;;;;;16.76;68.80;102104.06;6011645;29;20226;-87
2023/05/28 05:52:49;;;;;;;8.07;4.03;;;;;;;16.73;68.75;102107.94;6025697;29;20257;-84
2023/05/28 05:56:12;;;;;;;4.27;3.87;;;;;;;16.97;68.62;102110.19;6026415;29;20230;-83
2023/05/28 05:59:34;;;;;;;11.27;5.30;;;;;;;16.96;68.13;102116.63;6036803;29;21212;-87
2023/05/28 06:02:57;;;;;;;7.63;4.67;;;;;;;17.12;67.83;102119.63;6045705;29;20615;-87
2023/05/28 06:06:50;;;;;;;5.53;4.63;;;;;;;17.23;66.87;102119.44;6052027;29;20262;-86
2023/05/28 06:10:37;;;;;;;5.20;3.90;;;;;;;17.15;67.18;102118.44;6049774;29;20262;-87
2023/05/28 06:13:59;;;;;;;8.37;4.47;;;;;;;17.32;67.16;102121.28;6036310;29;20271;-83
2023/05/28 06:17:20;;;;;;;6.50;4.37;;;;;;;17.36;66.81;102119.09;6055198;29;20257;-84
2023/05/28 06:20:42;;;;;;;11.73;5.37;;;;;;;17.39;66.99;102132.44;6032553;29;20316;-85
2023/05/28 06:24:03;;;;;;;5.67;4.00;;;;;;;17.34;66.77;102130.16;6044705;29;20268;-84
2023/05/28 06:27:25;;;;;;;11.13;4.70;;;;;;;17.55;66.65;102125.38;6031573;29;20316;-85
2023/05/28 06:30:48;;;;;;;8.40;4.13;;;;;;;17.49;66.63;102123.25;6027774;29;21113;-85
2023/05/28 06:34:10;;;;;;;8.87;5.10;;;;;;;17.67;66.00;102128.75;6032469;29;20340;-84
2023/05/28 06:37:31;;;;;;;8.50;4.80;;;;;;;17.83;65.82;102128.97;6044893;29;21168;-86
2023/05/28 06:40:53;;;;;;;5.87;4.37;;;;;;;17.93;65.70;102120.72;6020736;29;20249;-84
2023/05/28 06:44:15;;;;;;;5.63;3.63;;;;;;;18.12;65.29;102126.91;6049736;29;20481;-83
2023/05/28 06:47:41;;;;;;;10.97;4.93;;;;;;;18.28;64.55;102120.75;6037791;29;20690;-87
2023/05/28 06:51:03;;;;;;;5.97;4.50;;;;;;;18.01;64.61;102124.38;6039459;29;20237;-74
2023/05/28 06:54:24;;;;;;;11.40;3.75;;;;;;;18.07;64.57;102123.75;6045627;29;20327;-75
2023/05/28 06:57:45;;;;;;;6.25;3.92;;;;;;;18.31;64.30;102132.19;6057353;29;20241;-77
2023/05/28 07:01:26;;;;;;;14.02;4.93;;;;;;;18.42;63.63;102135.75;6029707;29;20662;-79
2023/05/28 07:05:07;;;;;;;12.88;7.20;;;;;;;18.42;63.50;102135.75;6038902;29;20241;-75
2023/05/28 07:08:30;;;;;;;5.95;3.80;;;;;;;18.62;63.43;102140.91;6047401;29;20229;-76
2023/05/28 07:11:51;;;;;;;9.73;4.95;;;;;;;18.85;63.17;102133.94;6063459;29;20264;-75
2023/05/28 07:15:13;;;;;;;9.27;6.28;;;;;;;18.99;62.96;102137.94;6057700;29;20245;-76
2023/05/28 07:18:34;;;;;;;12.70;10.63;;;;;;;18.98;62.93;102141.72;6043080;29;20238;-77
2023/05/28 07:21:56;;;;;;;7.75;3.97;;;;;;;18.69;62.64;102150.16;6057666;29;20241;-76
2023/05/28 07:25:17;;;;;;;7.57;3.58;;;;;;;18.83;62.76;102146.03;6040846;29;20229;-76
2023/05/28 07:28:38;;;;;;;6.28;3.90;;;;;;;18.72;62.67;102149.00;6058598;29;20623;-76
2023/05/28 07:31:59;;;;;;;4.22;3.15;;;;;;;18.92;62.48;102147.81;6051542;29;20237;-75
2023/05/28 07:35:21;;;;;;;5.63;4.00;;;;;;;18.86;62.73;102159.38;6053164;29;20217;-77
2023/05/28 07:38:44;;;;;;;6.82;4.15;;;;;;;19.03;62.46;102153.88;6054544;29;20233;-75
2023/05/28 07:42:06;;;;;;;5.57;3.80;;;;;;;18.95;62.71;102159.28;6063594;29;20249;-76
2023/05/28 07:45:30;;;;;;;8.55;4.05;;;;;;;18.96;62.58;102163.72;6042936;29;20230;-75
2023/05/28 07:48:51;;;;;;;7.47;3.90;;;;;;;19.04;62.54;102152.88;6059956;29;20233;-76
2023/05/28 07:52:33;;;;;;;7.13;4.20;;;;;;;19.28;62.39;102154.03;6070711;29;20233;-77
2023/05/28 07:55:56;;;;;;;10.05;4.03;;;;;;;19.44;62.08;102156.91;6061466;29;20240;-78
2023/05/28 07:59:21;;;;;;;6.47;3.50;;;;;;;19.58;61.61;102153.56;6056044;29;20237;-83
2023/05/28 08:02:42;;;;;;;7.68;3.58;;;;;;;19.61;61.62;102156.81;6053955;29;20234;-82
2023/05/28 08:06:04;;;;;;;7.55;4.05;;;;;;;19.86;60.92;102149.56;6039107;29;20245;-82
2023/05/28 08:09:25;;;;;;;6.00;3.65;;;;;;;20.20;60.36;102144.94;6045127;29;20237;-81
2023/05/28 08:12:50;;;;;;;7.82;3.70;;;;;;;20.21;59.05;102148.53;6046635;29;20233;-82
2023/05/28 08:16:19;;;;;;;5.15;3.60;;;;;;;20.35;58.66;102150.59;6054655;29;20324;-85
2023/05/28 08:20:01;;;;;;;7.88;3.38;;;;;;;20.56;57.89;102143.63;6052482;29;20242;-84
2023/05/28 08:23:40;;;;;;;9.57;4.28;;;;;;;20.57;57.38;102150.81;6048841;29;20229;-83
2023/05/28 08:27:04;;;;;;;6.55;3.38;;;;;;;20.52;57.52;102145.00;6070794;29;20237;-86
2023/05/28 08:30:33;;;;;;;4.57;3.25;;;;;;;20.39;57.08;102144.63;6063953;29;20233;-86
2023/05/28 08:34:02;;;;;;;4.80;2.22;;;;;;;20.59;56.94;102143.28;6057160;29;20249;-85
2023/05/28 08:37:27;;;;;;;6.03;4.18;;;;;;;20.89;57.34;102146.34;6070101;29;20516;-87
2023/05/28 08:41:02;;;;;;;7.25;3.15;;;;;;;20.56;57.18;102143.63;6061735;29;20237;-86
2023/05/28 08:44:23;;;;;;;13.05;4.22;;;;;;;21.05;56.78;102144.50;6042395;29;20639;-86
2023/05/28 08:47:48;;;;;;;4.97;3.35;;;;;;;21.22;56.27;102137.94;6070631;29;20694;-87
2023/05/28 08:51:14;;;;;;;3.47;2.95;;;;;;;21.29;55.87;102130.75;6051045;29;20232;-84
2023/05/28 08:54:39;;;;;;;4.47;3.38;;;;;;;21.65;57.34;102133.91;6043453;29;20328;-83
2023/05/28 08:58:01;;;;;;;3.03;2.75;;;;;;;21.86;56.62;102128.66;6050819;29;20496;-78
2023/05/28 09:01:22;;;;;;;5.60;2.40;;;;;;;21.70;56.27;102131.44;6038449;29;20236;-79
2023/05/28 09:05:24;;;;;;;45.17;41.50;;;;;;;22.11;57.31;102124.75;6044789;29;20324;-78
2023/05/28 09:08:45;;;;;;;23.58;21.10;;;;;;;22.33;53.70;102125.81;6048254;29;21180;-71
2023/05/28 09:12:14;;;;;;;101.10;92.25;;;;;;;22.75;53.76;102117.97;6058396;29;20635;-75
2023/05/28 09:15:41;;;;;;;9.20;4.80;;;;;;;22.80;51.84;102122.91;6045659;29;20233;-75
2023/05/28 09:19:05;;;;;;;38.08;35.17;;;;;;;22.53;52.05;102116.03;6043152;29;20840;-74
2023/05/28 09:22:28;;;;;;;203.00;131.70;;;;;;;23.22;51.98;102120.41;6059749;29;20327;-74
2023/05/28 09:26:00;;;;;;;49.55;32.28;;;;;;;23.10;51.28;102110.06;6046374;29;20233;-72
2023/05/28 09:29:26;;;;;;;436.05;209.05;;;;;;;24.07;53.09;102110.66;6047051;29;20241;-74
2023/05/28 09:32:47;;;;;;;19.35;17.60;;;;;;;22.60;50.51;102113.44;6055947;29;20237;-78
2023/05/28 09:36:08;;;;;;;291.17;262.13;;;;;;;23.02;50.80;102113.75;6041132;29;20268;-77
2023/05/28 09:39:30;;;;;;;19.90;17.80;;;;;;;23.50;50.90;102112.41;6049042;29;20233;-76
2023/05/28 09:42:51;;;;;;;5.55;3.92;;;;;;;23.69;48.93;102112.69;6060906;29;20265;-77
2023/05/28 09:46:12;;;;;;;4.78;2.85;;;;;;;23.27;48.25;102109.72;6044074;29;20245;-77
2023/05/28 09:49:33;;;;;;;7.72;3.03;;;;;;;23.35;48.74;102111.53;6047977;29;20244;-77
2023/05/28 09:52:56;;;;;;;13.65;7.50;;;;;;;23.53;47.89;102109.28;6057937;29;20237;-79
2023/05/28 09:56:18;;;;;;;9.07;3.55;;;;;;;23.68;47.66;102108.19;6055205;29;20336;-78
2023/05/28 09:59:40;;;;;;;6.53;3.03;;;;;;;23.79;47.48;102104.97;6034561;29;20237;-78
2023/05/28 10:03:10;;;;;;;3.42;2.40;;;;;;;23.84;47.15;102101.63;6054428;29;20233;-78
2023/05/28 10:06:31;;;;;;;6.57;2.88;;;;;;;23.73;46.92;102100.22;6060985;29;20850;-79
2023/05/28 10:09:55;;;;;;;5.85;3.20;;;;;;;23.66;46.88;102093.78;6029543;29;20233;-79
2023/05/28 10:13:17;;;;;;;4.97;2.78;;;;;;;22.99;46.65;102092.09;6057596;29;20344;-78
2023/05/28 10:16:38;;;;;;;7.18;2.90;;;;;;;23.23;46.71;102093.75;6062755;29;20238;-77
2023/05/28 10:20:00;;;;;;;8.35;3.25;;;;;;;22.51;46.25;102090.63;6052832;29;20240;-77
2023/05/28 10:23:21;;;;;;;3.88;2.88;;;;;;;22.64;48.45;102095.53;6064535;29;20245;-76
2023/05/28 10:26:43;;;;;;;3.75;2.60;;;;;;;22.98;48.53;102088.53;6063290;29;20679;-76
2023/05/28 10:30:07;;;;;;;3.30;3.00;;;;;;;23.13;49.08;102087.69;6051413;29;20257;-77
2023/05/28 10:33:28;;;;;;;4.80;3.88;;;;;;;23.13;47.79;102094.03;6054483;29;20510;-77
2023/05/28 10:36:54;;;;;;;4.13;2.38;;;;;;;23.52;46.55;102089.13;6064197;29;20241;-77
2023/05/28 10:40:23;;;;;;;7.20;3.08;;;;;;;23.58;46.41;102088.38;6058967;29;20261;-77
2023/05/28 10:43:45;;;;;;;4.22;2.50;;;;;;;23.74;46.60;102084.53;6042073;29;20241;-77
2023/05/28 10:47:07;;;;;;;4.35;2.88;;;;;;;23.72;45.48;102086.63;6062820;29;20241;-76
2023/05/28 10:50:28;;;;;;;3.40;2.08;;;;;;;23.98;45.38;102088.88;6047660;29;20233;-76
2023/05/28 10:53:49;;;;;;;2.88;2.53;;;;;;;24.17;45.41;102078.09;6049334;29;20237;-77
2023/05/28 10:57:12;;;;;;;2.97;2.78;;;;;;;24.69;45.62;102079.66;6054608;29;20233;-76
2023/05/28 11:00:41;;;;;;;5.57;2.42;;;;;;;24.32;45.06;102081.63;6048438;29;20233;-78
2023/05/28 11:04:04;;;;;;;5.03;3.20;;;;;;;25.14;44.24;102081.94;6051676;29;20233;-79
2023/05/28 11:07:30;;;;;;;9.55;2.95;;;;;;;25.93;42.83;102080.50;6062119;29;20225;-78
2023/05/28 11:10:52;;;;;;;4.03;2.40;;;;;;;26.02;41.60;102080.09;6052137;29;20225;-76
2023/05/28 11:14:16;;;;;;;4.15;3.28;;;;;;;26.37;41.75;102086.38;6044013;29;20286;-75
2023/05/28 11:17:38;;;;;;;5.07;3.15;;;;;;;26.01;41.01;102075.59;6056615;29;20228;-79
2023/05/28 11:21:04;;;;;;;6.03;2.78;;;;;;;26.07;41.45;102077.59;6051803;29;20237;-77
2023/05/28 11:24:25;;;;;;;5.57;2.90;;;;;;;25.33;42.91;102073.78;6050049;29;21961;-78
2023/05/28 11:27:47;;;;;;;3.28;2.25;;;;;;;24.88;44.46;102070.72;6063012;29;20276;-78
2023/05/28 11:31:09;;;;;;;6.00;3.10;;;;;;;24.58;44.64;102068.13;6054951;29;20603;-79
2023/05/28 11:34:30;;;;;;;7.75;3.97;;;;;;;24.63;44.96;102074.94;6050282;29;20237;-77
2023/05/28 11:37:52;;;;;;;3.78;3.03;;;;;;;24.87;43.43;102069.00;6073127;29;20620;-78
2023/05/28 11:41:14;;;;;;;3.40;2.60;;;;;;;24.75;43.04;102065.97;6059877;29;20236;-78
2023/05/28 11:44:34;;;;;;;5.10;3.38;;;;;;;24.76;44.50;102061.31;6056768;29;20785;-78
2023/05/28 11:47:55;;;;;;;3.30;1.60;;;;;;;24.91;45.45;102060.13;6066131;29;20225;-80
2023/05/28 11:51:18;;;;;;;3.83;3.13;;;;;;;25.80;44.21;102058.34;6055452;29;20320;-78
2023/05/28 11:54:41;;;;;;;3.28;2.70;;;;;;;25.98;43.71;102066.88;6049772;29;20667;-78
2023/05/28 11:58:02;;;;;;;6.70;3.08;;;;;;;26.13;42.82;102060.19;6063577;29;20225;-77
2023/05/28 12:01:23;;;;;;;8.27;2.97;;;;;;;26.26;42.27;102062.13;6056799;29;20249;-75
2023/05/28 12:04:54;;;;;;;7.78;3.45;;;;;;;26.57;41.88;102051.28;6055716;29;20244;-77
2023/05/28 12:08:19;;;;;;;4.13;3.30;;;;;;;25.92;42.32;102057.53;6064439;29;20240;-76
2023/05/28 12:11:42;;;;;;;7.60;3.15;;;;;;;25.36;43.96;102054.06;6067493;29;20253;-77
2023/05/28 12:15:06;;;;;;;5.22;3.08;;;;;;;24.71;44.55;102045.31;6047476;29;20241;-75
2023/05/28 12:18:28;;;;;;;7.30;2.78;;;;;;;25.13;43.97;102042.47;6051378;29;20229;-78
2023/05/28 12:21:49;;;;;;;10.57;3.20;;;;;;;24.46;43.41;102044.88;6061607;29;20931;-77
2023/05/28 12:25:11;;;;;;;6.53;3.30;;;;;;;25.22;44.00;102041.22;6051342;29;20241;-75
2023/05/28 12:28:37;;;;;;;4.00;3.05;;;;;;;25.03;44.13;102032.84;6060436;29;20627;-77
2023/05/28 12:31:59;;;;;;;3.30;2.35;;;;;;;24.82;44.78;102038.44;6065437;29;20232;-77
2023/05/28 12:35:20;;;;;;;5.10;3.08;;;;;;;25.02;44.41;102050.44;6052332;29;20323;-76
2023/05/28 12:38:41;;;;;;;3.20;2.67;;;;;;;25.96;42.36;102038.59;6056600;29;20352;-77
2023/05/28 12:42:02;;;;;;;3.47;2.88;;;;;;;26.91;41.83;102036.41;6058837;29;20268;-75
2023/05/28 12:45:24;;;;;;;6.70;3.45;;;;;;;27.19;39.42;102038.88;6053634;29;20244;-77
2023/05/28 12:48:45;;;;;;;5.55;2.72;;;;;;;27.24;40.51;102030.78;6049111;29;20253;-76
2023/05/28 12:52:06;;;;;;;5.88;3.50;;;;;;;27.86;39.72;102033.75;6061264;29;20225;-79
2023/05/28 12:55:27;;;;;;;4.60;2.83;;;;;;;27.10;39.79;102034.66;6050438;29;20245;-76
2023/05/28 12:58:50;;;;;;;2.95;2.65;;;;;;;25.95;41.69;102039.69;6052311;29;20256;-74
2023/05/28 13:02:13;;;;;;;6.00;2.78;;;;;;;25.58;42.40;102042.94;6058100;29;20233;-75
2023/05/28 13:05:34;;;;;;;5.40;3.15;;;;;;;25.05;44.30;102031.59;6046992;29;20233;-76
2023/05/28 13:08:55;;;;;;;3.20;2.75;;;;;;;25.93;42.15;102025.22;6039875;29;20237;-76
2023/05/28 13:12:16;;;;;;;7.22;3.45;;;;;;;25.95;43.61;102029.44;6056348;29;20237;-76
2023/05/28 13:15:37;;;;;;;5.15;3.38;;;;;;;29.23;37.47;102015.16;6043231;29;20245;-75
2023/05/28 13:19:01;;;;;;;4.85;2.80;;;;;;;27.42;38.08;102019.88;6044236;29;20249;-76
2023/05/28 13:22:22;;;;;;;4.15;2.80;;;;;;;26.65;40.87;102019.78;6053225;29;20646;-77
2023/05/28 13:25:43;;;;;;;7.03;3.38;;;;;;;25.93;41.13;102019.69;6036059;29;20619;-78
2023/05/28 13:29:05;;;;;;;4.25;2.97;;;;;;;25.91;41.62;102019.88;6042595;29;20233;-77
2023/05/28 13:32:26;;;;;;;3.25;2.25;;;;;;;28.25;38.26;102005.78;6053321;29;20237;-77
2023/05/28 13:35:48;;;;;;;4.47;2.72;;;;;;;29.68;37.60;102012.91;6047821;29;20571;-74
2023/05/28 13:39:10;;;;;;;3.85;3.17;;;;;;;30.95;33.09;102001.28;6049483;29;20237;-76
2023/05/28 13:42:32;;;;;;;4.38;3.28;;;;;;;31.06;31.77;101998.50;6057296;29;20608;-76
2023/05/28 13:45:53;;;;;;;4.95;3.42;;;;;;;31.90;31.16;101999.72;6055780;29;20244;-76
2023/05/28 13:49:14;;;;;;;5.15;3.70;;;;;;;31.32;33.15;102000.75;6046408;29;20237;-76
2023/05/28 13:52:36;;;;;;;3.75;3.13;;;;;;;31.85;31.79;101991.28;6009369;29;20229;-75
2023/05/28 13:55:57;;;;;;;4.43;2.75;;;;;;;31.28;31.51;101981.97;6049960;29;20241;-75
2023/05/28 13:59:17;;;;;;;4.05;2.28;;;;;;;31.43;32.37;101983.19;6045692;29;20241;-74
2023/05/28 14:02:39;;;;;;;4.95;3.15;;;;;;;30.57;32.46;101985.03;6051006;29;20233;-75
2023/05/28 14:06:00;;;;;;;4.35;2.40;;;;;;;29.74;32.52;101982.28;6050949;29;20324;-77
2023/05/28 14:09:22;;;;;;;4.03;2.47;;;;;;;29.12;32.90;101971.47;6049450;29;20626;-76
2023/05/28 14:12:51;;;;;;;6.15;3.15;;;;;;;29.19;33.79;101970.34;6058799;29;20252;-74
2023/05/28 14:16:11;;;;;;;2.75;2.30;;;;;;;29.16;32.90;101962.47;6049734;29;20240;-76
2023/05/28 14:19:32;;;;;;;5.80;2.33;;;;;;;27.86;34.28;101961.66;6044448;29;20267;-75
2023/05/28 14:22:53;;;;;;;4.22;2.20;;;;;;;27.37;36.22;101961.53;6048047;29;21249;-78
2023/05/28 14:26:15;;;;;;;3.17;2.42;;;;;;;27.91;35.69;101955.47;6047620;29;20241;-76
2023/05/28 14:29:36;;;;;;;5.22;3.38;;;;;;;28.27;35.27;101958.41;6047923;29;20241;-76
2023/05/28 14:32:57;;;;;;;5.07;2.60;;;;;;;27.30;35.11;101967.06;6056193;29;20315;-77
2023/05/28 14:36:18;;;;;;;3.03;2.13;;;;;;;28.00;35.55;101966.09;6039764;29;20485;-76
2023/05/28 14:39:38;;;;;;;2.92;2.30;;;;;;;28.19;33.47;101962.31;6046836;29;20233;-76
2023/05/28 14:43:01;;;;;;;2.75;2.30;;;;;;;28.11;34.46;101970.06;6065841;29;20236;-76
2023/05/28 14:46:22;;;;;;;3.10;2.10;;;;;;;28.70;34.43;101969.59;6046113;29;20237;-75
2023/05/28 14:49:42;;;;;;;3.22;2.10;;;;;;;28.79;33.90;101965.44;6049061;29;20245;-76
2023/05/28 14:53:03;;;;;;;3.20;2.88;;;;;;;28.15;33.34;101958.28;6064194;29;20237;-77
2023/05/28 14:56:25;;;;;;;8.05;2.85;;;;;;;28.53;34.11;101965.66;6052031;29;20245;-78
2023/05/28 14:59:48;;;;;;;3.95;2.80;;;;;;;28.82;33.50;101967.75;6044388;29;20761;-79
2023/05/28 15:03:09;;;;;;;5.53;2.60;;;;;;;29.12;33.99;101963.97;6054615;29;20234;-79
2023/05/28 15:06:30;;;;;;;4.95;3.83;;;;;;;28.84;33.12;101958.09;6055397;29;20987;-76
2023/05/28 15:09:51;;;;;;;5.80;3.22;;;;;;;28.93;33.24;101953.09;6045849;29;20233;-75
2023/05/28 15:13:12;;;;;;;2.92;2.53;;;;;;;29.25;33.35;101956.63;6063092;29;20260;-80
2023/05/28 15:16:34;;;;;;;7.20;3.03;;;;;;;29.16;33.73;101945.78;6051944;29;20241;-80
2023/05/28 15:19:57;;;;;;;2.53;2.13;;;;;;;28.55;32.40;101956.03;6048589;29;20498;-80
2023/05/28 15:23:18;;;;;;;3.78;3.20;;;;;;;28.04;31.85;101956.25;6060615;29;20694;-78
2023/05/28 15:26:40;;;;;;;2.75;2.10;;;;;;;28.06;32.11;101956.03;6060018;29;20236;-80
2023/05/28 15:30:01;;;;;;;3.95;2.10;;;;;;;27.92;32.16;101948.81;6047145;29;20248;-82
2023/05/28 15:33:24;;;;;;;5.30;2.60;;;;;;;27.83;32.34;101951.03;6053744;29;20233;-81
2023/05/28 15:36:45;;;;;;;6.65;2.45;;;;;;;27.75;31.73;101951.28;6067607;29;20245;-82
2023/05/28 15:40:07;;;;;;;2.88;1.98;;;;;;;28.13;31.33;101937.41;6051928;29;20240;-83
2023/05/28 15:43:28;;;;;;;4.78;2.65;;;;;;;27.26;30.64;101948.31;6056400;29;20305;-83
2023/05/28 15:46:49;;;;;;;5.13;2.95;;;;;;;27.80;31.64;101958.94;6063701;29;20251;-80